sensor_id;sensor_type;location;lat;lon;timestamp;pressure;altitude;pressure_sealevel;temperature;humidity
62710;BME280;48770;51.624;5.886;2023-04-25T00:01:21;100896.75;;;20.39;38.35
62710;BME280;48770;51.624;5.886;2023-04-25T00:03:49;100900.34;;;20.40;38.40
62710;BME280;48770;51.624;5.886;2023-04-25T00:06:15;100905.06;;;20.39;38.58
62710;BME280;48770;51.624;5.886;2023-04-25T00:08:41;100902.66;;;20.38;38.21
62710;BME280;48770;51.624;5.886;2023-04-25T00:11:06;100904.63;;;20.37;38.21
62710;BME280;48770;51.624;5.886;2023-04-25T00:13:31;100919.31;;;20.38;38.20
62710;BME280;48770;51.624;5.886;2023-04-25T00:15:57;100907.41;;;20.37;38.35
62710;BME280;48770;51.624;5.886;2023-04-25T00:18:23;100911.34;;;20.36;38.23
62710;BME280;48770;51.624;5.886;2023-04-25T00:20:48;100920.81;;;20.35;38.34
62710;BME280;48770;51.624;5.886;2023-04-25T00:23:15;100918.84;;;20.36;38.62
62710;BME280;48770;51.624;5.886;2023-04-25T00:25:43;100919.19;;;20.34;38.10
62710;BME280;48770;51.624;5.886;2023-04-25T00:28:08;100924.75;;;20.34;38.16
62710;BME280;48770;51.624;5.886;2023-04-25T00:30:33;100926.72;;;20.33;38.26
62710;BME280;48770;51.624;5.886;2023-04-25T00:32:59;100923.13;;;20.33;38.31
62710;BME280;48770;51.624;5.886;2023-04-25T00:35:24;100921.88;;;20.30;38.20
62710;BME280;48770;51.624;5.886;2023-04-25T00:37:49;100923.84;;;20.30;38.04
62710;BME280;48770;51.624;5.886;2023-04-25T00:40:15;100918.28;;;20.30;38.31
62710;BME280;48770;51.624;5.886;2023-04-25T00:42:41;100928.53;;;20.29;37.99
62710;BME280;48770;51.624;5.886;2023-04-25T00:45:07;100926.59;;;20.30;38.27
62710;BME280;48770;51.624;5.886;2023-04-25T00:47:35;100923.00;;;20.29;38.26
62710;BME280;48770;51.624;5.886;2023-04-25T00:50:00;100921.38;;;20.28;38.19
62710;BME280;48770;51.624;5.886;2023-04-25T00:52:26;100920.56;;;20.28;38.01
62710;BME280;48770;51.624;5.886;2023-04-25T00:54:51;100921.72;;;20.27;38.29
62710;BME280;48770;51.624;5.886;2023-04-25T00:57:17;100927.28;;;20.27;38.29
62710;BME280;48770;51.624;5.886;2023-04-25T00:59:45;100920.91;;;20.26;38.00
62710;BME280;48770;51.624;5.886;2023-04-25T01:02:11;100922.06;;;20.25;38.06
62710;BME280;48770;51.624;5.886;2023-04-25T01:04:37;100923.22;;;20.24;37.99
62710;BME280;48770;51.624;5.886;2023-04-25T01:07:02;100927.16;;;20.23;38.11
62710;BME280;48770;51.624;5.886;2023-04-25T01:09:30;100926.81;;;20.25;38.10
62710;BME280;48770;51.624;5.886;2023-04-25T01:11:55;100925.19;;;20.24;38.02
62710;BME280;48770;51.624;5.886;2023-04-25T01:14:20;100920.78;;;20.23;38.19
62710;BME280;48770;51.624;5.886;2023-04-25T01:16:46;100926.69;;;20.21;38.11
62710;BME280;48770;51.624;5.886;2023-04-25T01:19:11;100923.91;;;20.21;38.17
62710;BME280;48770;51.624;5.886;2023-04-25T01:21:41;100932.25;;;20.21;37.98
62710;BME280;48770;51.624;5.886;2023-04-25T01:24:06;100933.41;;;20.20;38.11
62710;BME280;48770;51.624;5.886;2023-04-25T01:26:33;100931.44;;;20.21;38.20
62710;BME280;48770;51.624;5.886;2023-04-25T01:28:59;100935.38;;;20.20;38.37
62710;BME280;48770;51.624;5.886;2023-04-25T01:31:25;100933.75;;;20.19;38.09
62710;BME280;48770;51.624;5.886;2023-04-25T01:33:50;100936.06;;;20.17;38.12
62710;BME280;48770;51.624;5.886;2023-04-25T01:36:17;100932.94;;;20.18;37.96
62710;BME280;48770;51.624;5.886;2023-04-25T01:38:42;100934.09;;;20.17;37.92
62710;BME280;48770;51.624;5.886;2023-04-25T01:41:09;100947.97;;;20.17;37.90
62710;BME280;48770;51.624;5.886;2023-04-25T01:43:34;100943.59;;;20.16;38.04
62710;BME280;48770;51.624;5.886;2023-04-25T01:46:00;100940.00;;;20.16;37.94
62710;BME280;48770;51.624;5.886;2023-04-25T01:48:26;100946.72;;;20.15;38.00
62710;BME280;48770;51.624;5.886;2023-04-25T01:50:51;100947.88;;;20.14;38.02
62710;BME280;48770;51.624;5.886;2023-04-25T01:53:16;100954.22;;;20.14;37.91
62710;BME280;48770;51.624;5.886;2023-04-25T01:55:42;100952.63;;;20.13;38.04
62710;BME280;48770;51.624;5.886;2023-04-25T01:58:08;100957.34;;;20.13;37.96
62710;BME280;48770;51.624;5.886;2023-04-25T02:00:35;100958.16;;;20.13;38.07
62710;BME280;48770;51.624;5.886;2023-04-25T02:03:03;100961.28;;;20.12;37.93
62710;BME280;48770;51.624;5.886;2023-04-25T02:05:28;100959.66;;;20.11;37.92
62710;BME280;48770;51.624;5.886;2023-04-25T02:07:54;100959.66;;;20.11;37.86
62710;BME280;48770;51.624;5.886;2023-04-25T02:10:20;100959.66;;;20.11;38.12
62710;BME280;48770;51.624;5.886;2023-04-25T02:12:45;100962.78;;;20.09;37.96
62710;BME280;48770;51.624;5.886;2023-04-25T02:15:10;100958.03;;;20.10;37.87
62710;BME280;48770;51.624;5.886;2023-04-25T02:17:36;100969.50;;;20.08;37.91
62710;BME280;48770;51.624;5.886;2023-04-25T02:20:01;100964.28;;;20.07;37.98
62710;BME280;48770;51.624;5.886;2023-04-25T02:22:26;100957.59;;;20.08;38.09
62710;BME280;48770;51.624;5.886;2023-04-25T02:24:54;100960.69;;;20.06;38.02
62710;BME280;48770;51.624;5.886;2023-04-25T02:27:20;100966.25;;;20.06;37.77
62710;BME280;48770;51.624;5.886;2023-04-25T02:29:45;100962.66;;;20.06;37.86
62710;BME280;48770;51.624;5.886;2023-04-25T02:32:10;100960.25;;;20.04;37.97
62710;BME280;48770;51.624;5.886;2023-04-25T02:34:36;100962.19;;;20.03;37.76
62710;BME280;48770;51.624;5.886;2023-04-25T02:37:01;100966.59;;;20.05;37.93
62710;BME280;48770;51.624;5.886;2023-04-25T02:39:27;100966.09;;;20.02;37.86
62710;BME280;48770;51.624;5.886;2023-04-25T02:41:52;100974.44;;;20.02;37.99
62710;BME280;48770;51.624;5.886;2023-04-25T02:44:18;100975.25;;;20.03;38.20
62710;BME280;48770;51.624;5.886;2023-04-25T02:46:43;100962.53;;;20.02;37.98
62710;BME280;48770;51.624;5.886;2023-04-25T02:49:08;100969.22;;;20.01;37.98
62710;BME280;48770;51.624;5.886;2023-04-25T02:51:34;100971.19;;;20.00;38.09
62710;BME280;48770;51.624;5.886;2023-04-25T02:53:59;100972.00;;;20.01;37.75
62710;BME280;48770;51.624;5.886;2023-04-25T02:56:27;100976.75;;;20.00;38.07
62710;BME280;48770;51.624;5.886;2023-04-25T02:58:53;100968.41;;;20.00;38.07
62710;BME280;48770;51.624;5.886;2023-04-25T03:01:18;100961.25;;;19.99;37.81
62710;BME280;48770;51.624;5.886;2023-04-25T03:03:47;100966.34;;;19.97;37.77
62710;BME280;48770;51.624;5.886;2023-04-25T03:06:12;100971.88;;;19.97;37.72
62710;BME280;48770;51.624;5.886;2023-04-25T03:08:37;100966.69;;;19.96;37.84
62710;BME280;48770;51.624;5.886;2023-04-25T03:11:03;100973.03;;;19.96;37.88
62710;BME280;48770;51.624;5.886;2023-04-25T03:13:28;100975.00;;;19.96;37.70
62710;BME280;48770;51.624;5.886;2023-04-25T03:15:55;100975.81;;;19.96;37.55
62710;BME280;48770;51.624;5.886;2023-04-25T03:18:20;100974.19;;;19.95;37.86
62710;BME280;48770;51.624;5.886;2023-04-25T03:20:45;100971.41;;;19.95;37.97
62710;BME280;48770;51.624;5.886;2023-04-25T03:23:11;100978.94;;;19.95;37.68
62710;BME280;48770;51.624;5.886;2023-04-25T03:25:37;100981.25;;;19.93;37.68
62710;BME280;48770;51.624;5.886;2023-04-25T03:28:02;100981.25;;;19.93;37.79
62710;BME280;48770;51.624;5.886;2023-04-25T03:30:27;100980.44;;;19.92;38.10
62710;BME280;48770;51.624;5.886;2023-04-25T03:32:52;100979.63;;;19.92;37.83
62710;BME280;48770;51.624;5.886;2023-04-25T03:35:18;100978.81;;;19.91;37.91
62710;BME280;48770;51.624;5.886;2023-04-25T03:37:43;100979.97;;;19.90;37.72
62710;BME280;48770;51.624;5.886;2023-04-25T03:40:10;100982.75;;;19.90;37.83
62710;BME280;48770;51.624;5.886;2023-04-25T03:42:36;100982.75;;;19.90;37.69
62710;BME280;48770;51.624;5.886;2023-04-25T03:45:01;100983.88;;;19.89;37.80
62710;BME280;48770;51.624;5.886;2023-04-25T03:47:27;100988.63;;;19.89;37.78
62710;BME280;48770;51.624;5.886;2023-04-25T03:49:52;100988.63;;;19.89;37.90
62710;BME280;48770;51.624;5.886;2023-04-25T03:52:18;100990.59;;;19.88;37.68
62710;BME280;48770;51.624;5.886;2023-04-25T03:54:43;100998.13;;;19.88;37.72
62710;BME280;48770;51.624;5.886;2023-04-25T03:57:08;100994.53;;;19.87;37.78
62710;BME280;48770;51.624;5.886;2023-04-25T03:59:33;100998.47;;;19.86;37.75
62710;BME280;48770;51.624;5.886;2023-04-25T04:01:59;101000.41;;;19.86;37.95
62710;BME280;48770;51.624;5.886;2023-04-25T04:04:24;101000.41;;;19.86;37.80
62710;BME280;48770;51.624;5.886;2023-04-25T04:06:49;100998.00;;;19.84;37.47
62710;BME280;48770;51.624;5.886;2023-04-25T04:09:15;100988.84;;;19.84;37.73
62710;BME280;48770;51.624;5.886;2023-04-25T04:11:41;100994.41;;;19.84;37.61
62710;BME280;48770;51.624;5.886;2023-04-25T04:14:07;101000.28;;;19.82;37.62
62710;BME280;48770;51.624;5.886;2023-04-25T04:16:32;100999.47;;;19.82;37.63
62710;BME280;48770;51.624;5.886;2023-04-25T04:18:58;101004.22;;;19.81;37.82
62710;BME280;48770;51.624;5.886;2023-04-25T04:21:23;101001.44;;;19.81;37.95
62710;BME280;48770;51.624;5.886;2023-04-25T04:23:48;101003.41;;;19.81;37.62
62710;BME280;48770;51.624;5.886;2023-04-25T04:26:14;101005.38;;;19.80;37.61
62710;BME280;48770;51.624;5.886;2023-04-25T04:28:41;101010.13;;;19.80;37.72
62710;BME280;48770;51.624;5.886;2023-04-25T04:31:07;101004.56;;;19.80;37.56
62710;BME280;48770;51.624;5.886;2023-04-25T04:33:32;101009.31;;;19.79;37.59
62710;BME280;48770;51.624;5.886;2023-04-25T04:35:58;101008.50;;;19.79;37.63
62710;BME280;48770;51.624;5.886;2023-04-25T04:38:24;101016.81;;;19.79;37.90
62710;BME280;48770;51.624;5.886;2023-04-25T04:40:50;101012.38;;;19.78;37.82
62710;BME280;48770;51.624;5.886;2023-04-25T04:43:17;101024.34;;;19.78;37.59
62710;BME280;48770;51.624;5.886;2023-04-25T04:45:43;101031.00;;;19.77;37.58
62710;BME280;48770;51.624;5.886;2023-04-25T04:48:09;101029.03;;;19.78;37.68
62710;BME280;48770;51.624;5.886;2023-04-25T04:50:37;101028.22;;;19.77;37.65
62710;BME280;48770;51.624;5.886;2023-04-25T04:53:03;101036.09;;;19.75;37.67
62710;BME280;48770;51.624;5.886;2023-04-25T04:55:29;101033.31;;;19.75;37.66
62710;BME280;48770;51.624;5.886;2023-04-25T04:57:54;101042.78;;;19.74;37.60
62710;BME280;48770;51.624;5.886;2023-04-25T05:00:20;101053.53;;;19.76;37.64
62710;BME280;48770;51.624;5.886;2023-04-25T05:02:45;101056.66;;;19.74;37.55
62710;BME280;48770;51.624;5.886;2023-04-25T05:05:11;101052.25;;;19.73;37.78
62710;BME280;48770;51.624;5.886;2023-04-25T05:07:36;101053.88;;;19.74;37.68
62710;BME280;48770;51.624;5.886;2023-04-25T05:10:02;101057.81;;;19.73;37.54
62710;BME280;48770;51.624;5.886;2023-04-25T05:12:28;101066.13;;;19.73;37.50
62710;BME280;48770;51.624;5.886;2023-04-25T05:14:53;101072.84;;;19.72;37.58
62710;BME280;48770;51.624;5.886;2023-04-25T05:17:19;101074.47;;;19.73;37.54
62710;BME280;48770;51.624;5.886;2023-04-25T05:19:44;101070.88;;;19.73;37.55
62710;BME280;48770;51.624;5.886;2023-04-25T05:22:09;101078.38;;;19.72;37.54
62710;BME280;48770;51.624;5.886;2023-04-25T05:24:35;101076.41;;;19.73;37.44
62710;BME280;48770;51.624;5.886;2023-04-25T05:27:01;101084.75;;;19.73;37.59
62710;BME280;48770;51.624;5.886;2023-04-25T05:29:26;101089.47;;;19.72;37.56
62710;BME280;48770;51.624;5.886;2023-04-25T05:31:51;101089.47;;;19.72;37.43
62710;BME280;48770;51.624;5.886;2023-04-25T05:34:17;101089.81;;;19.70;37.60
62710;BME280;48770;51.624;5.886;2023-04-25T05:36:42;101090.63;;;19.71;37.61
62710;BME280;48770;51.624;5.886;2023-04-25T05:39:07;101094.56;;;19.70;37.50
62710;BME280;48770;51.624;5.886;2023-04-25T05:41:33;101101.72;;;19.71;37.56
62710;BME280;48770;51.624;5.886;2023-04-25T05:43:59;101100.09;;;19.70;37.49
62710;BME280;48770;51.624;5.886;2023-04-25T05:46:24;101098.13;;;19.70;37.48
62710;BME280;48770;51.624;5.886;2023-04-25T05:48:49;101102.06;;;19.69;37.60
62710;BME280;48770;51.624;5.886;2023-04-25T05:51:15;101104.03;;;19.69;37.60
62710;BME280;48770;51.624;5.886;2023-04-25T05:53:41;101109.56;;;19.69;37.49
62710;BME280;48770;51.624;5.886;2023-04-25T05:56:06;101115.94;;;19.69;37.56
62710;BME280;48770;51.624;5.886;2023-04-25T05:58:32;101113.50;;;19.68;37.54
62710;BME280;48770;51.624;5.886;2023-04-25T06:00:57;101115.47;;;19.67;37.36
62710;BME280;48770;51.624;5.886;2023-04-25T06:03:23;101116.28;;;19.68;37.43
62710;BME280;48770;51.624;5.886;2023-04-25T06:05:48;101119.88;;;19.68;37.41
62710;BME280;48770;51.624;5.886;2023-04-25T06:08:13;101114.31;;;19.68;37.48
62710;BME280;48770;51.624;5.886;2023-04-25T06:10:39;101119.88;;;19.68;37.31
62710;BME280;48770;51.624;5.886;2023-04-25T06:13:04;101112.34;;;19.69;37.38
62710;BME280;48770;51.624;5.886;2023-04-25T06:15:30;101114.31;;;19.68;37.46
62710;BME280;48770;51.624;5.886;2023-04-25T06:17:57;101114.31;;;19.68;37.53
62710;BME280;48770;51.624;5.886;2023-04-25T06:20:22;101124.59;;;19.68;37.35
62710;BME280;48770;51.624;5.886;2023-04-25T06:22:49;101122.63;;;19.68;37.44
62710;BME280;48770;51.624;5.886;2023-04-25T06:25:15;101128.19;;;19.68;37.40
62710;BME280;48770;51.624;5.886;2023-04-25T06:27:41;101127.38;;;19.68;37.38
62710;BME280;48770;51.624;5.886;2023-04-25T06:30:06;101128.19;;;19.68;37.35
62710;BME280;48770;51.624;5.886;2023-04-25T06:32:32;101136.50;;;19.68;37.28
62710;BME280;48770;51.624;5.886;2023-04-25T06:34:59;101137.31;;;19.69;37.41
62710;BME280;48770;51.624;5.886;2023-04-25T06:37:24;101131.78;;;19.69;37.47
62710;BME280;48770;51.624;5.886;2023-04-25T06:39:50;101134.88;;;19.67;37.34
62710;BME280;48770;51.624;5.886;2023-04-25T06:42:15;101142.06;;;19.68;37.35
62710;BME280;48770;51.624;5.886;2023-04-25T06:44:41;101139.63;;;19.67;37.35
62710;BME280;48770;51.624;5.886;2023-04-25T06:47:06;101150.72;;;19.67;37.38
62710;BME280;48770;51.624;5.886;2023-04-25T06:49:31;101156.25;;;19.67;37.53
62710;BME280;48770;51.624;5.886;2023-04-25T06:51:56;101150.38;;;19.68;37.47
62710;BME280;48770;51.624;5.886;2023-04-25T06:54:22;101149.56;;;19.68;37.29
62710;BME280;48770;51.624;5.886;2023-04-25T06:56:47;101151.53;;;19.67;37.34
62710;BME280;48770;51.624;5.886;2023-04-25T06:59:12;101159.84;;;19.67;37.29
62710;BME280;48770;51.624;5.886;2023-04-25T07:01:38;101163.44;;;19.68;37.40
62710;BME280;48770;51.624;5.886;2023-04-25T07:04:03;101161.47;;;19.68;37.22
62710;BME280;48770;51.624;5.886;2023-04-25T07:06:28;101161.47;;;19.68;37.29
62710;BME280;48770;51.624;5.886;2023-04-25T07:08:54;101165.06;;;19.69;37.20
62710;BME280;48770;51.624;5.886;2023-04-25T07:11:20;101170.28;;;19.70;37.28
62710;BME280;48770;51.624;5.886;2023-04-25T07:13:46;101173.38;;;19.69;37.04
62710;BME280;48770;51.624;5.886;2023-04-25T07:16:11;101178.13;;;19.68;37.21
62710;BME280;48770;51.624;5.886;2023-04-25T07:18:36;101178.94;;;19.69;37.26
62710;BME280;48770;51.624;5.886;2023-04-25T07:21:02;101177.31;;;19.68;37.22
62710;BME280;48770;51.624;5.886;2023-04-25T07:23:27;101182.84;;;19.68;37.22
62710;BME280;48770;51.624;5.886;2023-04-25T07:25:52;101180.91;;;19.68;37.07
62710;BME280;48770;51.624;5.886;2023-04-25T07:28:18;101186.44;;;19.68;37.24
62710;BME280;48770;51.624;5.886;2023-04-25T07:30:43;101182.84;;;19.68;37.09
62710;BME280;48770;51.624;5.886;2023-04-25T07:33:09;101183.66;;;19.68;37.15
62710;BME280;48770;51.624;5.886;2023-04-25T07:35:34;101190.03;;;19.69;37.29
62710;BME280;48770;51.624;5.886;2023-04-25T07:38:00;101188.06;;;19.69;37.04
62710;BME280;48770;51.624;5.886;2023-04-25T07:40:25;101198.34;;;19.69;37.11
62710;BME280;48770;51.624;5.886;2023-04-25T07:42:50;101193.63;;;19.69;37.14
62710;BME280;48770;51.624;5.886;2023-04-25T07:45:16;101196.38;;;19.69;37.10
62710;BME280;48770;51.624;5.886;2023-04-25T07:47:41;101203.09;;;19.68;37.02
62710;BME280;48770;51.624;5.886;2023-04-25T07:50:07;101202.75;;;19.70;37.13
62710;BME280;48770;51.624;5.886;2023-04-25T07:52:32;101204.72;;;19.69;37.23
62710;BME280;48770;51.624;5.886;2023-04-25T07:54:58;101209.94;;;19.71;36.84
62710;BME280;48770;51.624;5.886;2023-04-25T07:57:23;101223.47;;;19.73;37.06
62710;BME280;48770;51.624;5.886;2023-04-25T07:59:49;101213.50;;;19.71;37.20
62710;BME280;48770;51.624;5.886;2023-04-25T08:02:15;101223.78;;;19.71;37.14
62710;BME280;48770;51.624;5.886;2023-04-25T08:04:40;101224.59;;;19.71;37.15
62710;BME280;48770;51.624;5.886;2023-04-25T08:07:05;101226.56;;;19.71;37.03
62710;BME280;48770;51.624;5.886;2023-04-25T08:09:30;101228.53;;;19.70;37.04
62710;BME280;48770;51.624;5.886;2023-04-25T08:11:59;101235.72;;;19.71;37.01
62710;BME280;48770;51.624;5.886;2023-04-25T08:14:26;101230.16;;;19.71;37.06
62710;BME280;48770;51.624;5.886;2023-04-25T08:16:51;101234.91;;;19.71;37.01
62710;BME280;48770;51.624;5.886;2023-04-25T08:19:16;101234.91;;;19.71;36.89
62710;BME280;48770;51.624;5.886;2023-04-25T08:21:42;101243.56;;;19.69;37.17
62710;BME280;48770;51.624;5.886;2023-04-25T08:24:07;101247.13;;;19.70;37.17
62710;BME280;48770;51.624;5.886;2023-04-25T08:26:32;101256.28;;;19.70;37.13
62710;BME280;48770;51.624;5.886;2023-04-25T08:28:58;101259.06;;;19.70;36.76
62710;BME280;48770;51.624;5.886;2023-04-25T08:31:23;101261.00;;;19.70;37.06
62710;BME280;48770;51.624;5.886;2023-04-25T08:33:48;101259.88;;;19.71;37.08
62710;BME280;48770;51.624;5.886;2023-04-25T08:36:14;101257.09;;;19.71;37.09
62710;BME280;48770;51.624;5.886;2023-04-25T08:38:40;101264.25;;;19.72;37.03
62710;BME280;48770;51.624;5.886;2023-04-25T08:41:06;101274.22;;;19.73;37.09
62710;BME280;48770;51.624;5.886;2023-04-25T08:43:32;101267.50;;;19.74;36.88
62710;BME280;48770;51.624;5.886;2023-04-25T08:45:59;101271.91;;;19.75;37.04
62710;BME280;48770;51.624;5.886;2023-04-25T08:48:26;101268.31;;;19.75;36.89
62710;BME280;48770;51.624;5.886;2023-04-25T08:50:54;101280.25;;;19.75;36.92
62710;BME280;48770;51.624;5.886;2023-04-25T08:53:26;101277.47;;;19.75;36.86
62710;BME280;48770;51.624;5.886;2023-04-25T08:55:56;101285.78;;;19.75;36.88
62710;BME280;48770;51.624;5.886;2023-04-25T08:58:22;101279.44;;;19.75;36.86
62710;BME280;48770;51.624;5.886;2023-04-25T09:00:48;101280.25;;;19.75;36.84
62710;BME280;48770;51.624;5.886;2023-04-25T09:03:14;101281.38;;;19.74;37.05
62710;BME280;48770;51.624;5.886;2023-04-25T09:05:40;101280.25;;;19.75;36.90
62710;BME280;48770;51.624;5.886;2023-04-25T09:08:06;101285.44;;;19.77;37.03
62710;BME280;48770;51.624;5.886;2023-04-25T09:10:32;101296.56;;;19.77;37.07
62710;BME280;48770;51.624;5.886;2023-04-25T09:13:07;101309.59;;;19.76;36.94
62710;BME280;48770;51.624;5.886;2023-04-25T09:18:12;101321.53;;;19.77;36.97
62710;BME280;48770;51.624;5.886;2023-04-25T09:20:42;101319.56;;;19.77;36.90
62710;BME280;48770;51.624;5.886;2023-04-25T09:23:08;101318.44;;;19.78;36.88
62710;BME280;48770;51.624;5.886;2023-04-25T09:25:34;101320.06;;;19.79;37.19
62710;BME280;48770;51.624;5.886;2023-04-25T09:28:04;101327.59;;;19.79;37.09
62710;BME280;48770;51.624;5.886;2023-04-25T09:30:31;101333.94;;;19.79;36.84
62710;BME280;48770;51.624;5.886;2023-04-25T09:32:57;101339.97;;;19.81;36.83
62710;BME280;48770;51.624;5.886;2023-04-25T09:35:28;101330.34;;;19.79;36.89
62710;BME280;48770;51.624;5.886;2023-04-25T09:37:54;101339.78;;;19.78;36.87
62710;BME280;48770;51.624;5.886;2023-04-25T09:40:19;101337.88;;;19.78;36.84
62710;BME280;48770;51.624;5.886;2023-04-25T09:42:44;101340.94;;;19.77;36.81
62710;BME280;48770;51.624;5.886;2023-04-25T09:45:12;101350.91;;;19.78;36.84
62710;BME280;48770;51.624;5.886;2023-04-25T09:47:40;101350.09;;;19.77;36.83
62710;BME280;48770;51.624;5.886;2023-04-25T09:50:13;101359.56;;;19.76;36.97
62710;BME280;48770;51.624;5.886;2023-04-25T09:52:40;101357.94;;;19.75;36.84
62710;BME280;48770;51.624;5.886;2023-04-25T09:55:05;101363.47;;;19.75;36.92
62710;BME280;48770;51.624;5.886;2023-04-25T09:57:31;101371.81;;;19.75;37.14
62710;BME280;48770;51.624;5.886;2023-04-25T09:59:57;101357.94;;;19.75;36.86
62710;BME280;48770;51.624;5.886;2023-04-25T10:02:26;101369.84;;;19.76;36.91
62710;BME280;48770;51.624;5.886;2023-04-25T10:04:53;101381.75;;;19.76;36.94
62710;BME280;48770;51.624;5.886;2023-04-25T10:07:22;101374.56;;;19.75;36.61
62710;BME280;48770;51.624;5.886;2023-04-25T10:09:59;101378.97;;;19.76;36.78
62710;BME280;48770;51.624;5.886;2023-04-25T10:12:26;101379.78;;;19.77;37.03
62710;BME280;48770;51.624;5.886;2023-04-25T10:14:52;101382.56;;;19.77;36.90
62710;BME280;48770;51.624;5.886;2023-04-25T10:17:19;101377.84;;;19.77;36.78
62710;BME280;48770;51.624;5.886;2023-04-25T10:19:46;101373.94;;;19.78;37.05
62710;BME280;48770;51.624;5.886;2023-04-25T10:22:17;101368.69;;;19.77;36.96
62710;BME280;48770;51.624;5.886;2023-04-25T10:24:44;101372.28;;;19.77;36.85
62710;BME280;48770;51.624;5.886;2023-04-25T10:27:12;101375.06;;;19.77;36.90
62710;BME280;48770;51.624;5.886;2023-04-25T10:29:37;101370.00;;;19.79;36.88
62710;BME280;48770;51.624;5.886;2023-04-25T10:32:02;101369.50;;;19.77;36.81
62710;BME280;48770;51.624;5.886;2023-04-25T10:34:42;101365.09;;;19.76;36.92
62710;BME280;48770;51.624;5.886;2023-04-25T10:37:09;101365.63;;;19.78;36.78
62710;BME280;48770;51.624;5.886;2023-04-25T10:39:35;101363.66;;;19.79;36.75
62710;BME280;48770;51.624;5.886;2023-04-25T10:42:02;101363.31;;;19.80;36.99
62710;BME280;48770;51.624;5.886;2023-04-25T10:44:29;101362.16;;;19.81;36.81
62710;BME280;48770;51.624;5.886;2023-04-25T10:46:56;101363.78;;;19.82;36.62
62710;BME280;48770;51.624;5.886;2023-04-25T10:49:33;101375.22;;;19.81;36.64
62710;BME280;48770;51.624;5.886;2023-04-25T10:54:52;101386.97;;;19.78;36.74
62710;BME280;48770;51.624;5.886;2023-04-25T11:00:09;101380.59;;;19.77;36.66
62710;BME280;48770;51.624;5.886;2023-04-25T11:02:58;101381.28;;;19.74;36.69
62710;BME280;48770;51.624;5.886;2023-04-25T11:05:29;101382.09;;;19.75;36.92
62710;BME280;48770;51.624;5.886;2023-04-25T11:07:57;101394.00;;;19.75;36.81
62710;BME280;48770;51.624;5.886;2023-04-25T11:10:31;101388.44;;;19.75;36.78
62710;BME280;48770;51.624;5.886;2023-04-25T11:12:57;101386.50;;;19.76;37.01
62710;BME280;48770;51.624;5.886;2023-04-25T11:15:23;101391.22;;;19.75;36.88
62710;BME280;48770;51.624;5.886;2023-04-25T11:17:51;101377.34;;;19.75;36.95
62710;BME280;48770;51.624;5.886;2023-04-25T11:20:16;101384.53;;;19.76;36.74
62710;BME280;48770;51.624;5.886;2023-04-25T11:22:44;101377.00;;;19.77;36.78
62710;BME280;48770;51.624;5.886;2023-04-25T11:25:11;101373.94;;;19.78;36.75
62710;BME280;48770;51.624;5.886;2023-04-25T11:27:56;101373.94;;;19.78;36.72
62710;BME280;48770;51.624;5.886;2023-04-25T11:30:23;101380.59;;;19.77;36.79
62710;BME280;48770;51.624;5.886;2023-04-25T11:32:48;101385.84;;;19.79;36.77
62710;BME280;48770;51.624;5.886;2023-04-25T11:35:14;101391.41;;;19.79;36.91
62710;BME280;48770;51.624;5.886;2023-04-25T11:37:41;101397.75;;;19.79;36.86
62710;BME280;48770;51.624;5.886;2023-04-25T11:40:07;101402.50;;;19.79;37.02
62710;BME280;48770;51.624;5.886;2023-04-25T11:42:36;101414.41;;;19.79;36.47
62710;BME280;48770;51.624;5.886;2023-04-25T11:45:03;101408.88;;;19.79;36.86
62710;BME280;48770;51.624;5.886;2023-04-25T11:47:30;101422.75;;;19.79;36.64
62710;BME280;48770;51.624;5.886;2023-04-25T11:50:00;101409.69;;;19.80;36.77
62710;BME280;48770;51.624;5.886;2023-04-25T11:52:43;101408.34;;;19.77;36.74
62710;BME280;48770;51.624;5.886;2023-04-25T11:57:40;101410.50;;;19.80;36.61
62710;BME280;48770;51.624;5.886;2023-04-25T12:02:43;101427.13;;;19.80;36.74
62710;BME280;48770;51.624;5.886;2023-04-25T12:05:09;101423.69;;;19.83;36.74
62710;BME280;48770;51.624;5.886;2023-04-25T12:07:35;101423.38;;;19.85;36.80
62710;BME280;48770;51.624;5.886;2023-04-25T12:10:06;101429.72;;;19.85;36.80
62710;BME280;48770;51.624;5.886;2023-04-25T12:12:33;101425.00;;;19.86;36.70
62710;BME280;48770;51.624;5.886;2023-04-25T12:17:38;101429.88;;;19.89;36.28
62710;BME280;48770;51.624;5.886;2023-04-25T12:20:08;101428.41;;;19.91;36.70
62710;BME280;48770;51.624;5.886;2023-04-25T12:22:34;101422.50;;;19.93;36.60
62710;BME280;48770;51.624;5.886;2023-04-25T12:24:59;101424.97;;;19.94;36.43
62710;BME280;48770;51.624;5.886;2023-04-25T12:27:25;101417.09;;;19.96;36.61
62710;BME280;48770;51.624;5.886;2023-04-25T12:29:53;101427.53;;;19.99;36.54
62710;BME280;48770;51.624;5.886;2023-04-25T12:32:18;101422.81;;;20.00;36.40
62710;BME280;48770;51.624;5.886;2023-04-25T12:34:44;101422.47;;;20.01;36.50
62710;BME280;48770;51.624;5.886;2023-04-25T12:37:10;101421.03;;;20.04;36.50
62710;BME280;48770;51.624;5.886;2023-04-25T12:39:35;101415.47;;;20.04;36.45
62710;BME280;48770;51.624;5.886;2023-04-25T12:42:01;101417.09;;;20.05;36.44
62710;BME280;48770;51.624;5.886;2023-04-25T12:44:26;101417.56;;;20.07;36.47
62710;BME280;48770;51.624;5.886;2023-04-25T12:46:52;101427.19;;;20.10;36.38
62710;BME280;48770;51.624;5.886;2023-04-25T12:49:18;101423.75;;;20.13;36.41
62710;BME280;48770;51.624;5.886;2023-04-25T12:51:43;101423.41;;;20.14;36.29
62710;BME280;48770;51.624;5.886;2023-04-25T12:54:09;101433.03;;;20.17;36.38
62710;BME280;48770;51.624;5.886;2023-04-25T12:56:35;101422.06;;;20.20;36.30
62710;BME280;48770;51.624;5.886;2023-04-25T12:59:01;101432.84;;;20.22;36.19
62710;BME280;48770;51.624;5.886;2023-04-25T13:01:28;101424.66;;;20.25;36.32